sensor_id;sensor_type;location;lat;lon;timestamp;temperature;humidity
17619;DHT22;8928;51.678;6.074;2023-05-17T00:00:27;6.70;99.90
17619;DHT22;8928;51.678;6.074;2023-05-17T00:03:14;6.70;99.90
17619;DHT22;8928;51.678;6.074;2023-05-17T00:06:02;6.60;99.90
17619;DHT22;8928;51.678;6.074;2023-05-17T00:08:49;6.60;99.90
17619;DHT22;8928;51.678;6.074;2023-05-17T00:11:36;6.50;99.90
17619;DHT22;8928;51.678;6.074;2023-05-17T00:14:23;6.50;99.90
17619;DHT22;8928;51.678;6.074;2023-05-17T00:17:11;6.50;99.90
17619;DHT22;8928;51.678;6.074;2023-05-17T00:19:58;6.40;99.90
17619;DHT22;8928;51.678;6.074;2023-05-17T00:22:46;6.40;99.90
17619;DHT22;8928;51.678;6.074;2023-05-17T00:25:33;6.30;99.90
17619;DHT22;8928;51.678;6.074;2023-05-17T00:28:20;6.40;99.90
17619;DHT22;8928;51.678;6.074;2023-05-17T00:31:08;6.50;99.90
17619;DHT22;8928;51.678;6.074;2023-05-17T00:33:55;6.50;99.90
17619;DHT22;8928;51.678;6.074;2023-05-17T00:36:42;6.50;99.90
17619;DHT22;8928;51.678;6.074;2023-05-17T00:39:30;6.50;99.90
17619;DHT22;8928;51.678;6.074;2023-05-17T00:42:17;6.50;99.90
17619;DHT22;8928;51.678;6.074;2023-05-17T00:45:05;6.50;99.90
17619;DHT22;8928;51.678;6.074;2023-05-17T00:47:52;6.50;99.90
17619;DHT22;8928;51.678;6.074;2023-05-17T00:50:40;6.40;99.90
17619;DHT22;8928;51.678;6.074;2023-05-17T00:53:28;6.40;99.90
17619;DHT22;8928;51.678;6.074;2023-05-17T00:56:17;6.40;99.90
17619;DHT22;8928;51.678;6.074;2023-05-17T00:59:05;6.30;99.90
17619;DHT22;8928;51.678;6.074;2023-05-17T01:01:53;6.30;99.90
17619;DHT22;8928;51.678;6.074;2023-05-17T01:04:40;6.30;99.90
17619;DHT22;8928;51.678;6.074;2023-05-17T01:07:27;6.30;99.90
17619;DHT22;8928;51.678;6.074;2023-05-17T01:10:14;6.30;99.90
17619;DHT22;8928;51.678;6.074;2023-05-17T01:13:08;6.30;99.90
17619;DHT22;8928;51.678;6.074;2023-05-17T01:15:59;6.30;99.90
17619;DHT22;8928;51.678;6.074;2023-05-17T01:18:53;6.40;99.90
17619;DHT22;8928;51.678;6.074;2023-05-17T01:21:55;6.40;99.90
17619;DHT22;8928;51.678;6.074;2023-05-17T01:24:51;6.40;99.90
17619;DHT22;8928;51.678;6.074;2023-05-17T01:27:42;6.40;99.90
17619;DHT22;8928;51.678;6.074;2023-05-17T01:30:31;6.50;99.90
17619;DHT22;8928;51.678;6.074;2023-05-17T01:33:19;6.50;99.90
17619;DHT22;8928;51.678;6.074;2023-05-17T01:36:07;6.40;99.90
17619;DHT22;8928;51.678;6.074;2023-05-17T01:38:54;6.50;99.90
17619;DHT22;8928;51.678;6.074;2023-05-17T01:41:42;6.40;99.90
17619;DHT22;8928;51.678;6.074;2023-05-17T01:44:39;6.40;99.90
17619;DHT22;8928;51.678;6.074;2023-05-17T01:47:32;6.40;99.90
17619;DHT22;8928;51.678;6.074;2023-05-17T01:50:28;6.50;99.90
17619;DHT22;8928;51.678;6.074;2023-05-17T01:53:20;6.50;99.90
17619;DHT22;8928;51.678;6.074;2023-05-17T01:56:09;6.50;99.90
17619;DHT22;8928;51.678;6.074;2023-05-17T01:59:01;6.50;99.90
17619;DHT22;8928;51.678;6.074;2023-05-17T02:01:53;6.40;99.90
17619;DHT22;8928;51.678;6.074;2023-05-17T02:04:41;6.50;99.90
17619;DHT22;8928;51.678;6.074;2023-05-17T02:07:28;6.60;99.90
17619;DHT22;8928;51.678;6.074;2023-05-17T02:10:15;6.60;99.90
17619;DHT22;8928;51.678;6.074;2023-05-17T02:13:02;6.60;99.90
17619;DHT22;8928;51.678;6.074;2023-05-17T02:15:50;6.60;99.90
17619;DHT22;8928;51.678;6.074;2023-05-17T02:18:38;6.50;99.90
17619;DHT22;8928;51.678;6.074;2023-05-17T02:21:25;6.50;99.90
17619;DHT22;8928;51.678;6.074;2023-05-17T02:24:12;6.50;99.90
17619;DHT22;8928;51.678;6.074;2023-05-17T02:27:00;6.50;99.90
17619;DHT22;8928;51.678;6.074;2023-05-17T02:29:48;6.50;99.90
17619;DHT22;8928;51.678;6.074;2023-05-17T02:32:35;6.40;99.90
17619;DHT22;8928;51.678;6.074;2023-05-17T02:35:24;6.40;99.90
17619;DHT22;8928;51.678;6.074;2023-05-17T02:38:11;6.40;99.90
17619;DHT22;8928;51.678;6.074;2023-05-17T02:40:58;6.40;99.90
17619;DHT22;8928;51.678;6.074;2023-05-17T02:43:45;6.40;99.90
17619;DHT22;8928;51.678;6.074;2023-05-17T02:46:32;6.40;99.90
17619;DHT22;8928;51.678;6.074;2023-05-17T02:49:19;6.40;99.90
17619;DHT22;8928;51.678;6.074;2023-05-17T02:52:08;6.40;99.90
17619;DHT22;8928;51.678;6.074;2023-05-17T02:54:55;6.40;99.90
17619;DHT22;8928;51.678;6.074;2023-05-17T02:57:42;6.60;99.90
17619;DHT22;8928;51.678;6.074;2023-05-17T03:00:29;6.60;99.90
17619;DHT22;8928;51.678;6.074;2023-05-17T03:03:17;6.80;99.90
17619;DHT22;8928;51.678;6.074;2023-05-17T03:06:05;6.80;99.90
17619;DHT22;8928;51.678;6.074;2023-05-17T03:08:53;6.80;99.90
17619;DHT22;8928;51.678;6.074;2023-05-17T03:11:40;6.90;99.90
17619;DHT22;8928;51.678;6.074;2023-05-17T03:14:27;7.00;99.90
17619;DHT22;8928;51.678;6.074;2023-05-17T03:17:14;6.90;99.90
17619;DHT22;8928;51.678;6.074;2023-05-17T03:20:01;7.00;99.90
17619;DHT22;8928;51.678;6.074;2023-05-17T03:22:49;7.00;99.90
17619;DHT22;8928;51.678;6.074;2023-05-17T03:25:37;7.10;99.90
17619;DHT22;8928;51.678;6.074;2023-05-17T03:28:24;7.10;99.90
17619;DHT22;8928;51.678;6.074;2023-05-17T03:31:11;7.10;99.90
17619;DHT22;8928;51.678;6.074;2023-05-17T03:33:58;7.10;99.90
17619;DHT22;8928;51.678;6.074;2023-05-17T03:36:46;7.10;99.90
17619;DHT22;8928;51.678;6.074;2023-05-17T03:39:33;7.10;99.90
17619;DHT22;8928;51.678;6.074;2023-05-17T03:42:21;7.10;99.90
17619;DHT22;8928;51.678;6.074;2023-05-17T03:45:09;7.10;99.90
17619;DHT22;8928;51.678;6.074;2023-05-17T03:47:56;7.00;99.90
17619;DHT22;8928;51.678;6.074;2023-05-17T03:50:43;6.90;99.90
17619;DHT22;8928;51.678;6.074;2023-05-17T03:53:30;6.80;99.90
17619;DHT22;8928;51.678;6.074;2023-05-17T03:56:17;6.80;99.90
17619;DHT22;8928;51.678;6.074;2023-05-17T03:59:06;6.90;99.90
17619;DHT22;8928;51.678;6.074;2023-05-17T04:01:53;7.10;99.90
17619;DHT22;8928;51.678;6.074;2023-05-17T04:04:40;7.30;99.90
17619;DHT22;8928;51.678;6.074;2023-05-17T04:07:27;7.50;99.90
17619;DHT22;8928;51.678;6.074;2023-05-17T04:10:14;7.60;99.90
17619;DHT22;8928;51.678;6.074;2023-05-17T04:13:01;7.70;99.90
17619;DHT22;8928;51.678;6.074;2023-05-17T04:15:50;7.80;99.90
17619;DHT22;8928;51.678;6.074;2023-05-17T04:18:37;7.80;99.90
17619;DHT22;8928;51.678;6.074;2023-05-17T04:21:24;7.80;99.90
17619;DHT22;8928;51.678;6.074;2023-05-17T04:24:11;7.90;99.90
17619;DHT22;8928;51.678;6.074;2023-05-17T04:26:58;7.90;99.90
17619;DHT22;8928;51.678;6.074;2023-05-17T04:29:46;7.80;99.90
17619;DHT22;8928;51.678;6.074;2023-05-17T04:32:34;7.80;99.90
17619;DHT22;8928;51.678;6.074;2023-05-17T04:35:21;7.80;99.90
17619;DHT22;8928;51.678;6.074;2023-05-17T04:38:08;7.80;99.90
17619;DHT22;8928;51.678;6.074;2023-05-17T04:41:00;7.90;99.90
17619;DHT22;8928;51.678;6.074;2023-05-17T04:43:47;8.10;99.90
17619;DHT22;8928;51.678;6.074;2023-05-17T04:46:34;8.10;99.90
17619;DHT22;8928;51.678;6.074;2023-05-17T04:49:23;8.30;99.90
17619;DHT22;8928;51.678;6.074;2023-05-17T04:52:10;8.50;99.90
17619;DHT22;8928;51.678;6.074;2023-05-17T04:54:57;8.60;99.90
17619;DHT22;8928;51.678;6.074;2023-05-17T04:57:44;8.70;99.90
17619;DHT22;8928;51.678;6.074;2023-05-17T05:00:32;8.70;99.90
17619;DHT22;8928;51.678;6.074;2023-05-17T05:03:19;8.80;99.90
17619;DHT22;8928;51.678;6.074;2023-05-17T05:06:09;8.80;99.90
17619;DHT22;8928;51.678;6.074;2023-05-17T05:08:56;8.80;99.90
17619;DHT22;8928;51.678;6.074;2023-05-17T05:11:43;8.80;99.90
17619;DHT22;8928;51.678;6.074;2023-05-17T05:14:30;9.00;99.90
17619;DHT22;8928;51.678;6.074;2023-05-17T05:17:17;9.10;99.90
17619;DHT22;8928;51.678;6.074;2023-05-17T05:20:06;9.20;99.90
17619;DHT22;8928;51.678;6.074;2023-05-17T05:22:55;9.30;99.90
17619;DHT22;8928;51.678;6.074;2023-05-17T05:25:43;9.30;99.90
17619;DHT22;8928;51.678;6.074;2023-05-17T05:28:30;9.40;99.90
17619;DHT22;8928;51.678;6.074;2023-05-17T05:31:17;9.30;99.90
17619;DHT22;8928;51.678;6.074;2023-05-17T05:34:04;9.40;99.90
17619;DHT22;8928;51.678;6.074;2023-05-17T05:36:51;9.40;99.90
17619;DHT22;8928;51.678;6.074;2023-05-17T05:39:39;9.40;99.90
17619;DHT22;8928;51.678;6.074;2023-05-17T05:42:26;9.40;99.90
17619;DHT22;8928;51.678;6.074;2023-05-17T05:45:14;9.50;99.90
17619;DHT22;8928;51.678;6.074;2023-05-17T05:48:01;9.50;99.90
17619;DHT22;8928;51.678;6.074;2023-05-17T05:50:50;9.40;99.90
17619;DHT22;8928;51.678;6.074;2023-05-17T05:53:37;9.40;99.90
17619;DHT22;8928;51.678;6.074;2023-05-17T05:56:26;9.50;99.90
17619;DHT22;8928;51.678;6.074;2023-05-17T05:59:13;9.50;99.90
17619;DHT22;8928;51.678;6.074;2023-05-17T06:02:00;9.60;99.90
17619;DHT22;8928;51.678;6.074;2023-05-17T06:04:47;9.90;99.90
17619;DHT22;8928;51.678;6.074;2023-05-17T06:07:34;10.20;99.90
17619;DHT22;8928;51.678;6.074;2023-05-17T06:10:21;10.40;99.90
17619;DHT22;8928;51.678;6.074;2023-05-17T06:13:10;10.60;99.90
17619;DHT22;8928;51.678;6.074;2023-05-17T06:15:57;10.70;99.90
17619;DHT22;8928;51.678;6.074;2023-05-17T06:18:44;10.90;99.90
17619;DHT22;8928;51.678;6.074;2023-05-17T06:21:31;11.10;99.90
17619;DHT22;8928;51.678;6.074;2023-05-17T06:24:18;11.20;99.90
17619;DHT22;8928;51.678;6.074;2023-05-17T06:27:05;11.30;99.90
17619;DHT22;8928;51.678;6.074;2023-05-17T06:29:54;11.40;99.90
17619;DHT22;8928;51.678;6.074;2023-05-17T06:32:41;11.60;99.90
17619;DHT22;8928;51.678;6.074;2023-05-17T06:35:28;11.50;99.90
17619;DHT22;8928;51.678;6.074;2023-05-17T06:38:15;11.60;99.90
17619;DHT22;8928;51.678;6.074;2023-05-17T06:41:02;11.70;99.90
17619;DHT22;8928;51.678;6.074;2023-05-17T06:43:49;11.90;99.90
17619;DHT22;8928;51.678;6.074;2023-05-17T06:46:37;11.80;99.90
17619;DHT22;8928;51.678;6.074;2023-05-17T06:49:25;11.70;99.90
17619;DHT22;8928;51.678;6.074;2023-05-17T06:52:12;11.60;99.90
17619;DHT22;8928;51.678;6.074;2023-05-17T06:54:59;11.70;99.90
17619;DHT22;8928;51.678;6.074;2023-05-17T06:57:46;11.60;99.90
17619;DHT22;8928;51.678;6.074;2023-05-17T07:00:33;11.50;99.90
17619;DHT22;8928;51.678;6.074;2023-05-17T07:03:21;11.40;99.90
17619;DHT22;8928;51.678;6.074;2023-05-17T07:06:08;11.50;99.90
17619;DHT22;8928;51.678;6.074;2023-05-17T07:08:55;11.70;99.90
17619;DHT22;8928;51.678;6.074;2023-05-17T07:11:42;12.00;99.90
17619;DHT22;8928;51.678;6.074;2023-05-17T07:14:29;12.20;99.90
17619;DHT22;8928;51.678;6.074;2023-05-17T07:17:16;12.00;99.90
17619;DHT22;8928;51.678;6.074;2023-05-17T07:20:06;12.00;99.90
17619;DHT22;8928;51.678;6.074;2023-05-17T07:22:53;11.90;99.90
17619;DHT22;8928;51.678;6.074;2023-05-17T07:25:41;12.00;99.90
17619;DHT22;8928;51.678;6.074;2023-05-17T07:28:28;12.20;99.90
17619;DHT22;8928;51.678;6.074;2023-05-17T07:31:15;12.50;99.90
17619;DHT22;8928;51.678;6.074;2023-05-17T07:34:03;12.80;99.90
17619;DHT22;8928;51.678;6.074;2023-05-17T07:36:52;13.20;99.90
17619;DHT22;8928;51.678;6.074;2023-05-17T07:39:39;13.40;99.90
17619;DHT22;8928;51.678;6.074;2023-05-17T07:42:26;13.20;99.90
17619;DHT22;8928;51.678;6.074;2023-05-17T07:45:13;13.20;99.90
17619;DHT22;8928;51.678;6.074;2023-05-17T07:48:00;13.20;99.90
17619;DHT22;8928;51.678;6.074;2023-05-17T07:50:47;13.30;99.90
17619;DHT22;8928;51.678;6.074;2023-05-17T07:53:36;13.20;99.90
17619;DHT22;8928;51.678;6.074;2023-05-17T07:56:23;12.90;99.90
17619;DHT22;8928;51.678;6.074;2023-05-17T07:59:10;12.60;99.90
17619;DHT22;8928;51.678;6.074;2023-05-17T08:01:57;12.80;99.90
17619;DHT22;8928;51.678;6.074;2023-05-17T08:04:44;13.20;99.90
17619;DHT22;8928;51.678;6.074;2023-05-17T08:07:31;13.70;99.90
17619;DHT22;8928;51.678;6.074;2023-05-17T08:10:20;14.30;99.90
17619;DHT22;8928;51.678;6.074;2023-05-17T08:13:07;14.70;99.90
17619;DHT22;8928;51.678;6.074;2023-05-17T08:15:54;15.00;99.90
17619;DHT22;8928;51.678;6.074;2023-05-17T08:18:44;15.20;99.90
17619;DHT22;8928;51.678;6.074;2023-05-17T08:21:31;15.40;99.90
17619;DHT22;8928;51.678;6.074;2023-05-17T08:24:18;15.30;99.90
17619;DHT22;8928;51.678;6.074;2023-05-17T08:27:07;15.30;99.90
17619;DHT22;8928;51.678;6.074;2023-05-17T08:29:55;15.40;99.90
17619;DHT22;8928;51.678;6.074;2023-05-17T08:32:42;15.60;99.90
17619;DHT22;8928;51.678;6.074;2023-05-17T08:35:30;15.80;99.90
17619;DHT22;8928;51.678;6.074;2023-05-17T08:38:17;15.90;99.90
17619;DHT22;8928;51.678;6.074;2023-05-17T08:41:04;16.20;99.90
17619;DHT22;8928;51.678;6.074;2023-05-17T08:43:53;16.20;99.90
17619;DHT22;8928;51.678;6.074;2023-05-17T08:46:42;16.40;99.90
17619;DHT22;8928;51.678;6.074;2023-05-17T08:49:30;16.80;99.90
17619;DHT22;8928;51.678;6.074;2023-05-17T08:52:18;17.30;99.90
17619;DHT22;8928;51.678;6.074;2023-05-17T08:55:06;17.40;99.90
17619;DHT22;8928;51.678;6.074;2023-05-17T08:57:54;17.70;99.90
17619;DHT22;8928;51.678;6.074;2023-05-17T09:00:43;17.50;99.90
17619;DHT22;8928;51.678;6.074;2023-05-17T09:03:31;17.70;99.90
17619;DHT22;8928;51.678;6.074;2023-05-17T09:06:21;17.70;99.90
17619;DHT22;8928;51.678;6.074;2023-05-17T09:09:08;17.90;99.90
17619;DHT22;8928;51.678;6.074;2023-05-17T09:11:56;17.50;99.90
17619;DHT22;8928;51.678;6.074;2023-05-17T09:14:43;17.10;99.90
17619;DHT22;8928;51.678;6.074;2023-05-17T09:17:31;17.30;99.90
17619;DHT22;8928;51.678;6.074;2023-05-17T09:20:22;17.60;99.90
17619;DHT22;8928;51.678;6.074;2023-05-17T09:23:10;17.80;99.90
17619;DHT22;8928;51.678;6.074;2023-05-17T09:26:03;18.30;99.90
17619;DHT22;8928;51.678;6.074;2023-05-17T09:28:51;18.60;99.90
17619;DHT22;8928;51.678;6.074;2023-05-17T09:31:39;18.80;99.90
17619;DHT22;8928;51.678;6.074;2023-05-17T09:34:28;19.30;99.90
17619;DHT22;8928;51.678;6.074;2023-05-17T09:37:16;19.50;99.90
17619;DHT22;8928;51.678;6.074;2023-05-17T09:40:05;19.40;99.90
17619;DHT22;8928;51.678;6.074;2023-05-17T09:42:52;19.50;99.90
17619;DHT22;8928;51.678;6.074;2023-05-17T09:45:39;19.30;99.90
17619;DHT22;8928;51.678;6.074;2023-05-17T09:48:26;19.50;99.90
17619;DHT22;8928;51.678;6.074;2023-05-17T09:51:15;20.00;99.90
17619;DHT22;8928;51.678;6.074;2023-05-17T09:54:02;20.30;99.90
17619;DHT22;8928;51.678;6.074;2023-05-17T09:56:53;20.50;99.90
17619;DHT22;8928;51.678;6.074;2023-05-17T09:59:41;18.90;99.90
17619;DHT22;8928;51.678;6.074;2023-05-17T10:02:30;18.70;99.90
17619;DHT22;8928;51.678;6.074;2023-05-17T10:05:19;18.50;99.90
17619;DHT22;8928;51.678;6.074;2023-05-17T10:08:09;18.00;99.90
17619;DHT22;8928;51.678;6.074;2023-05-17T10:10:59;18.70;99.90
17619;DHT22;8928;51.678;6.074;2023-05-17T10:13:53;19.40;99.90
17619;DHT22;8928;51.678;6.074;2023-05-17T10:16:41;19.80;99.90
17619;DHT22;8928;51.678;6.074;2023-05-17T10:19:29;19.90;99.90
17619;DHT22;8928;51.678;6.074;2023-05-17T10:22:17;20.20;99.90
17619;DHT22;8928;51.678;6.074;2023-05-17T10:25:07;19.80;99.90
17619;DHT22;8928;51.678;6.074;2023-05-17T10:27:54;19.50;99.90
17619;DHT22;8928;51.678;6.074;2023-05-17T10:30:42;19.20;99.90
17619;DHT22;8928;51.678;6.074;2023-05-17T10:33:31;18.50;99.90
17619;DHT22;8928;51.678;6.074;2023-05-17T10:36:18;17.80;99.90
17619;DHT22;8928;51.678;6.074;2023-05-17T10:39:05;17.30;99.90
17619;DHT22;8928;51.678;6.074;2023-05-17T10:41:56;17.30;99.90
17619;DHT22;8928;51.678;6.074;2023-05-17T10:44:43;18.30;99.90
17619;DHT22;8928;51.678;6.074;2023-05-17T10:47:31;18.10;99.90
17619;DHT22;8928;51.678;6.074;2023-05-17T10:50:22;18.50;99.90
17619;DHT22;8928;51.678;6.074;2023-05-17T10:53:09;19.00;99.90
17619;DHT22;8928;51.678;6.074;2023-05-17T10:55:56;19.70;99.90
17619;DHT22;8928;51.678;6.074;2023-05-17T10:58:45;20.20;99.90
17619;DHT22;8928;51.678;6.074;2023-05-17T11:01:52;20.30;99.90
17619;DHT22;8928;51.678;6.074;2023-05-17T11:04:41;20.80;99.90
17619;DHT22;8928;51.678;6.074;2023-05-17T11:07:30;19.70;99.90
17619;DHT22;8928;51.678;6.074;2023-05-17T11:10:19;19.10;99.90
17619;DHT22;8928;51.678;6.074;2023-05-17T11:13:21;19.70;99.90
17619;DHT22;8928;51.678;6.074;2023-05-17T11:16:12;20.50;99.90
17619;DHT22;8928;51.678;6.074;2023-05-17T11:19:06;20.20;99.90
17619;DHT22;8928;51.678;6.074;2023-05-17T11:21:53;19.50;99.90
17619;DHT22;8928;51.678;6.074;2023-05-17T11:24:43;19.60;99.70
17619;DHT22;8928;51.678;6.074;2023-05-17T11:27:35;19.40;97.20
17619;DHT22;8928;51.678;6.074;2023-05-17T11:30:23;19.80;99.40
17619;DHT22;8928;51.678;6.074;2023-05-17T11:33:12;19.90;99.10
17619;DHT22;8928;51.678;6.074;2023-05-17T11:36:04;19.80;99.90
17619;DHT22;8928;51.678;6.074;2023-05-17T11:39:10;19.30;99.90
17619;DHT22;8928;51.678;6.074;2023-05-17T11:41:57;19.50;99.90
17619;DHT22;8928;51.678;6.074;2023-05-17T11:44:44;19.80;99.90
17619;DHT22;8928;51.678;6.074;2023-05-17T11:47:32;20.30;99.90
17619;DHT22;8928;51.678;6.074;2023-05-17T11:50:20;19.30;97.80
17619;DHT22;8928;51.678;6.074;2023-05-17T11:53:08;18.90;98.70
17619;DHT22;8928;51.678;6.074;2023-05-17T11:55:56;19.60;99.90
17619;DHT22;8928;51.678;6.074;2023-05-17T11:58:50;19.80;98.00
17619;DHT22;8928;51.678;6.074;2023-05-17T12:01:44;20.80;99.20
17619;DHT22;8928;51.678;6.074;2023-05-17T12:04:35;20.90;97.50
17619;DHT22;8928;51.678;6.074;2023-05-17T12:07:23;20.60;98.00
17619;DHT22;8928;51.678;6.074;2023-05-17T12:10:12;19.80;98.60
17619;DHT22;8928;51.678;6.074;2023-05-17T12:12:59;20.00;99.10
17619;DHT22;8928;51.678;6.074;2023-05-17T12:15:52;20.70;99.90
17619;DHT22;8928;51.678;6.074;2023-05-17T12:18:42;21.40;97.30
17619;DHT22;8928;51.678;6.074;2023-05-17T12:21:30;21.10;98.80
17619;DHT22;8928;51.678;6.074;2023-05-17T12:24:19;20.70;95.50
17619;DHT22;8928;51.678;6.074;2023-05-17T12:27:06;20.90;94.90
17619;DHT22;8928;51.678;6.074;2023-05-17T12:29:53;21.50;94.80
17619;DHT22;8928;51.678;6.074;2023-05-17T12:32:41;22.10;94.80
17619;DHT22;8928;51.678;6.074;2023-05-17T12:35:28;21.80;94.30
17619;DHT22;8928;51.678;6.074;2023-05-17T12:38:15;20.30;92.80
17619;DHT22;8928;51.678;6.074;2023-05-17T12:41:05;21.30;96.10
17619;DHT22;8928;51.678;6.074;2023-05-17T12:43:53;23.40;93.50
17619;DHT22;8928;51.678;6.074;2023-05-17T12:46:40;23.30;93.30
17619;DHT22;8928;51.678;6.074;2023-05-17T12:49:27;23.80;91.50
17619;DHT22;8928;51.678;6.074;2023-05-17T12:52:17;24.50;91.10
17619;DHT22;8928;51.678;6.074;2023-05-17T12:55:04;24.20;89.80
17619;DHT22;8928;51.678;6.074;2023-05-17T12:57:53;25.50;87.30
17619;DHT22;8928;51.678;6.074;2023-05-17T13:00:55;25.50;80.00
17619;DHT22;8928;51.678;6.074;2023-05-17T13:03:49;23.70;75.30
17619;DHT22;8928;51.678;6.074;2023-05-17T13:06:43;23.30;82.50
17619;DHT22;8928;51.678;6.074;2023-05-17T13:09:32;24.50;79.70
17619;DHT22;8928;51.678;6.074;2023-05-17T13:12:20;24.30;75.60
17619;DHT22;8928;51.678;6.074;2023-05-17T13:15:10;25.00;76.50
17619;DHT22;8928;51.678;6.074;2023-05-17T13:17:57;25.30;73.40
17619;DHT22;8928;51.678;6.074;2023-05-17T13:20:44;24.60;68.00
17619;DHT22;8928;51.678;6.074;2023-05-17T13:23:31;25.10;72.40
17619;DHT22;8928;51.678;6.074;2023-05-17T13:26:20;25.50;70.00
17619;DHT22;8928;51.678;6.074;2023-05-17T13:29:07;26.40;71.00
17619;DHT22;8928;51.678;6.074;2023-05-17T13:31:56;25.90;65.70
17619;DHT22;8928;51.678;6.074;2023-05-17T13:34:43;26.40;69.40
17619;DHT22;8928;51.678;6.074;2023-05-17T13:37:30;27.30;67.60
17619;DHT22;8928;51.678;6.074;2023-05-17T13:40:17;27.40;61.00
17619;DHT22;8928;51.678;6.074;2023-05-17T13:43:04;27.50;61.50
17619;DHT22;8928;51.678;6.074;2023-05-17T13:45:52;26.90;58.60
17619;DHT22;8928;51.678;6.074;2023-05-17T13:48:44;27.00;61.60
17619;DHT22;8928;51.678;6.074;2023-05-17T13:51:32;27.40;60.00
17619;DHT22;8928;51.678;6.074;2023-05-17T13:54:19;28.00;57.80
17619;DHT22;8928;51.678;6.074;2023-05-17T13:57:06;28.90;58.80
17619;DHT22;8928;51.678;6.074;2023-05-17T13:59:53;28.90;55.20
17619;DHT22;8928;51.678;6.074;2023-05-17T14:02:40;28.90;54.60
17619;DHT22;8928;51.678;6.074;2023-05-17T14:05:29;28.30;51.60
17619;DHT22;8928;51.678;6.074;2023-05-17T14:08:18;28.10;51.80
17619;DHT22;8928;51.678;6.074;2023-05-17T14:11:05;27.90;52.50
17619;DHT22;8928;51.678;6.074;2023-05-17T14:13:52;28.10;50.90
17619;DHT22;8928;51.678;6.074;2023-05-17T14:16:39;28.50;49.90
17619;DHT22;8928;51.678;6.074;2023-05-17T14:19:26;28.80;49.10
17619;DHT22;8928;51.678;6.074;2023-05-17T14:22:15;28.60;48.10
17619;DHT22;8928;51.678;6.074;2023-05-17T14:25:02;27.80;47.90
17619;DHT22;8928;51.678;6.074;2023-05-17T14:27:50;28.20;47.40
17619;DHT22;8928;51.678;6.074;2023-05-17T14:30:37;28.20;48.10
17619;DHT22;8928;51.678;6.074;2023-05-17T14:33:24;28.30;48.50
17619;DHT22;8928;51.678;6.074;2023-05-17T14:36:12;28.90;45.70
17619;DHT22;8928;51.678;6.074;2023-05-17T14:39:02;29.20;46.60
17619;DHT22;8928;51.678;6.074;2023-05-17T14:41:50;28.40;44.80
17619;DHT22;8928;51.678;6.074;2023-05-17T14:44:37;28.80;44.90
17619;DHT22;8928;51.678;6.074;2023-05-17T14:47:24;29.00;43.70
17619;DHT22;8928;51.678;6.074;2023-05-17T14:50:11;29.10;44.00
17619;DHT22;8928;51.678;6.074;2023-05-17T14:52:58;29.70;44.60
17619;DHT22;8928;51.678;6.074;2023-05-17T14:55:47;30.00;43.70
17619;DHT22;8928;51.678;6.074;2023-05-17T14:58:34;30.20;42.30
17619;DHT22;8928;51.678;6.074;2023-05-17T15:01:21;30.40;40.80
17619;DHT22;8928;51.678;6.074;2023-05-17T15:04:08;30.20;42.00
17619;DHT22;8928;51.678;6.074;2023-05-17T15:06:56;30.20;42.50
17619;DHT22;8928;51.678;6.074;2023-05-17T15:09:43;30.40;40.00
17619;DHT22;8928;51.678;6.074;2023-05-17T15:12:32;29.70;41.20
17619;DHT22;8928;51.678;6.074;2023-05-17T15:15:19;29.40;40.40
17619;DHT22;8928;51.678;6.074;2023-05-17T15:18:06;29.80;39.80
17619;DHT22;8928;51.678;6.074;2023-05-17T15:20:53;30.20;40.50
17619;DHT22;8928;51.678;6.074;2023-05-17T15:23:40;30.30;39.30
17619;DHT22;8928;51.678;6.074;2023-05-17T15:26:27;29.90;38.20
17619;DHT22;8928;51.678;6.074;2023-05-17T15:29:16;29.90;40.00
17619;DHT22;8928;51.678;6.074;2023-05-17T15:32:03;30.10;39.30
17619;DHT22;8928;51.678;6.074;2023-05-17T15:34:50;30.50;39.10
17619;DHT22;8928;51.678;6.074;2023-05-17T15:37:38;30.30;38.00
17619;DHT22;8928;51.678;6.074;2023-05-17T15:40:25;29.60;38.90
17619;DHT22;8928;51.678;6.074;2023-05-17T15:43:12;29.70;37.50
17619;DHT22;8928;51.678;6.074;2023-05-17T15:46:01;30.50;38.40
17619;DHT22;8928;51.678;6.074;2023-05-17T15:48:48;30.50;38.20
17619;DHT22;8928;51.678;6.074;2023-05-17T15:51:35;30.90;38.30
17619;DHT22;8928;51.678;6.074;2023-05-17T15:54:22;31.20;36.80
17619;DHT22;8928;51.678;6.074;2023-05-17T15:57:09;30.20;36.30
17619;DHT22;8928;51.678;6.074;2023-05-17T15:59:56;29.50;36.90
17619;DHT22;8928;51.678;6.074;2023-05-17T16:02:44;29.00;37.80
17619;DHT22;8928;51.678;6.074;2023-05-17T16:05:32;29.10;36.40
17619;DHT22;8928;51.678;6.074;2023-05-17T16:08:19;27.80;37.50
17619;DHT22;8928;51.678;6.074;2023-05-17T16:11:06;26.70;39.80
17619;DHT22;8928;51.678;6.074;2023-05-17T16:13:54;27.50;39.00
17619;DHT22;8928;51.678;6.074;2023-05-17T16:16:42;27.40;38.10
17619;DHT22;8928;51.678;6.074;2023-05-17T16:19:31;27.20;38.10
17619;DHT22;8928;51.678;6.074;2023-05-17T16:22:18;27.60;39.80
17619;DHT22;8928;51.678;6.074;2023-05-17T16:25:06;28.10;36.80
17619;DHT22;8928;51.678;6.074;2023-05-17T16:27:53;26.70;37.70
17619;DHT22;8928;51.678;6.074;2023-05-17T16:30:41;27.20;38.00
17619;DHT22;8928;51.678;6.074;2023-05-17T16:33:28;25.90;38.20
17619;DHT22;8928;51.678;6.074;2023-05-17T16:36:16;26.10;39.20
17619;DHT22;8928;51.678;6.074;2023-05-17T16:39:03;26.70;38.10
17619;DHT22;8928;51.678;6.074;2023-05-17T16:41:50;26.60;38.90
17619;DHT22;8928;51.678;6.074;2023-05-17T16:44:37;26.20;38.10
17619;DHT22;8928;51.678;6.074;2023-05-17T16:47:24;25.60;38.10
17619;DHT22;8928;51.678;6.074;2023-05-17T16:50:12;25.20;39.20
17619;DHT22;8928;51.678;6.074;2023-05-17T16:53:00;25.50;39.20
17619;DHT22;8928;51.678;6.074;2023-05-17T16:55:48;25.10;38.80
17619;DHT22;8928;51.678;6.074;2023-05-17T16:58:35;25.50;40.00
17619;DHT22;8928;51.678;6.074;2023-05-17T17:01:22;26.60;38.80
17619;DHT22;8928;51.678;6.074;2023-05-17T17:04:09;27.30;38.70
17619;DHT22;8928;51.678;6.074;2023-05-17T17:06:56;26.70;39.00
17619;DHT22;8928;51.678;6.074;2023-05-17T17:09:44;26.60;39.10
17619;DHT22;8928;51.678;6.074;2023-05-17T17:12:31;26.60;39.40
17619;DHT22;8928;51.678;6.074;2023-05-17T17:15:18;26.80;37.60
17619;DHT22;8928;51.678;6.074;2023-05-17T17:18:06;26.60;37.40
17619;DHT22;8928;51.678;6.074;2023-05-17T17:20:53;26.60;38.90
17619;DHT22;8928;51.678;6.074;2023-05-17T17:23:40;26.40;38.10
17619;DHT22;8928;51.678;6.074;2023-05-17T17:26:29;26.00;37.50
17619;DHT22;8928;51.678;6.074;2023-05-17T17:29:16;26.20;37.80
17619;DHT22;8928;51.678;6.074;2023-05-17T17:32:03;25.70;37.60
17619;DHT22;8928;51.678;6.074;2023-05-17T17:34:51;25.30;36.80
17619;DHT22;8928;51.678;6.074;2023-05-17T17:37:38;25.20;38.30
17619;DHT22;8928;51.678;6.074;2023-05-17T17:40:25;25.20;37.70
17619;DHT22;8928;51.678;6.074;2023-05-17T17:43:13;25.10;38.20
17619;DHT22;8928;51.678;6.074;2023-05-17T17:46:00;24.80;38.30
17619;DHT22;8928;51.678;6.074;2023-05-17T17:48:47;24.40;37.90
17619;DHT22;8928;51.678;6.074;2023-05-17T17:51:34;24.10;39.00
17619;DHT22;8928;51.678;6.074;2023-05-17T17:54:21;23.70;38.50
17619;DHT22;8928;51.678;6.074;2023-05-17T17:57:08;23.10;39.90
17619;DHT22;8928;51.678;6.074;2023-05-17T17:59:57;22.60;38.70
17619;DHT22;8928;51.678;6.074;2023-05-17T18:02:44;22.40;39.60
17619;DHT22;8928;51.678;6.074;2023-05-17T18:05:31;22.20;41.30